Huvudsida
METAR-TAF:

METAR-TAF

Flygplatser :

Mandalay International Airport

Mandalay, Burma

latitud: 21-59N, longitud: 096-06E, höjd: 74 m

Aktuellt väderrapport

Denna rapport gjordes för 4 timmar och 6 minuter sedan, klockan 08:30 UTC
Vind 7 kt från syd
Temperatur 42°C
Fuktighet 32%
Tryck 1002 hPa
Sikt: 7000 m
Spridda moln på en höjd av 2500 ft
Få moln på en höjd av 2000 ft, Cumulonimbus.
torrdis,

METAR: VYMD 240830Z 18007KT 7000 HZ SCT025 FEW020CB 42/22 Q1002

Tid: 19:06 (12:36 UTC)

Väderprognos

Denna rapport gjordes för 13 timmar och 36 minuter sedan, klockan 23:00 UTC
Prognos gäller från 24 kl. 00 UTC till 24 kl. 24 UTC
Vind 5 kt från syd
Sikt: 7000 m
Spridda moln på en höjd av 2500 ft
Temporärt
från 24 kl. 00 UTC till 24 kl. 06 UTC
Vind 8 kt från syd/sydost
Sikt: 6000 m
Spridda moln på en höjd av 2000 ft
Spridda moln på en höjd av 10000 ft
torrdis,

TAF: VYMD 232300Z 2400/2424 18005KT 7000 SCT025 TEMPO 2400/2406 16008KT 6000 HZ SCT020 SCT100

Aktuella väderrapporter och prognoser från 4000 flygplatser (METAR- och TAF-rapporter).

De tillgängliga stationerna syns som gula och röda prickar på kartan.

För musen över prickarna för att se namnen på stationerna.

Klicka sedan för att få väderrapporter och prognoser.

För att ändra kartan: Klicka på de gröna knapparna med ett svart kors på för att zooma in; den gröna knappen med ett streck på för att zooma ut; eller på de gröna pilarna för angränsande kartor.


METAR-TAF: